createdAt,value
2022-11-29T00:01:32.984Z,8.32
2022-11-29T00:04:00.704Z,7.45
2022-11-29T00:06:31.428Z,7.20
2022-11-29T00:09:02.008Z,7.57
2022-11-29T00:11:51.989Z,7.40
2022-11-29T00:14:20.061Z,7.55
2022-11-29T00:16:52.191Z,7.78
2022-11-29T00:19:20.273Z,6.32
2022-11-29T00:21:47.859Z,7.47
2022-11-29T00:24:15.005Z,6.95
2022-11-29T00:26:42.315Z,6.78
2022-11-29T00:29:12.261Z,6.63
2022-11-29T00:31:39.845Z,6.68
2022-11-29T00:34:07.775Z,6.57
2022-11-29T00:36:35.636Z,6.40
2022-11-29T00:39:05.093Z,6.15
2022-11-29T00:41:33.015Z,6.60
2022-11-29T00:44:00.912Z,6.75
2022-11-29T00:46:28.191Z,6.35
2022-11-29T00:48:55.606Z,6.57
2022-11-29T00:51:22.843Z,5.90
2022-11-29T00:53:50.027Z,6.22
2022-11-29T00:56:17.266Z,5.82
2022-11-29T00:58:44.582Z,5.50
2022-11-29T01:01:12.058Z,5.88
2022-11-29T01:03:39.503Z,5.82
2022-11-29T01:06:09.604Z,5.30
2022-11-29T01:08:37.581Z,4.90
2022-11-29T01:11:14.580Z,5.63
2022-11-29T01:13:42.598Z,5.85
2022-11-29T01:16:09.809Z,5.60
2022-11-29T01:18:38.240Z,5.90
2022-11-29T01:21:15.795Z,5.18
2022-11-29T01:23:43.912Z,4.95
2022-11-29T01:26:26.572Z,4.88
2022-11-29T01:28:55.517Z,4.60
2022-11-29T01:31:27.068Z,4.93
2022-11-29T01:33:59.405Z,4.75
2022-11-29T01:36:26.860Z,4.63
2022-11-29T01:38:54.484Z,4.55
2022-11-29T01:41:25.296Z,4.80
2022-11-29T01:44:03.537Z,4.60
2022-11-29T01:46:36.747Z,4.70
2022-11-29T01:49:08.537Z,4.75
2022-11-29T01:51:37.885Z,4.60
2022-11-29T01:54:06.309Z,4.47
2022-11-29T01:56:35.343Z,4.22
2022-11-29T01:59:07.933Z,4.72
2022-11-29T02:01:36.713Z,4.22
2022-11-29T02:04:04.745Z,4.05
2022-11-29T02:06:32.314Z,3.80
2022-11-29T02:08:59.623Z,4.00
2022-11-29T02:11:35.190Z,3.83
2022-11-29T02:14:30.418Z,3.90
2022-11-29T02:17:00.350Z,4.00
2022-11-29T02:19:57.712Z,4.28
2022-11-29T02:22:38.556Z,4.07
2022-11-29T02:25:17.744Z,3.92
2022-11-29T02:28:09.685Z,4.03
2022-11-29T02:30:58.440Z,3.83
2022-11-29T02:33:49.409Z,4.07
2022-11-29T02:36:53.886Z,4.20
2022-11-29T02:39:44.190Z,4.15
2022-11-29T02:42:55.720Z,4.40
2022-11-29T02:45:32.742Z,4.00
2022-11-29T02:48:14.736Z,3.97
2022-11-29T02:50:57.360Z,4.05
2022-11-29T02:53:38.294Z,4.10
2022-11-29T02:56:14.586Z,4.05
2022-11-29T02:58:55.761Z,3.90
2022-11-29T03:01:31.007Z,3.50
2022-11-29T03:04:14.131Z,4.00
2022-11-29T03:06:54.689Z,3.40
2022-11-29T03:09:46.614Z,3.50
2022-11-29T03:12:45.364Z,4.03
2022-11-29T03:15:27.759Z,3.90
2022-11-29T03:21:03.623Z,3.75
2022-11-29T03:23:39.354Z,3.80
2022-11-29T03:26:16.216Z,3.90
2022-11-29T03:29:07.474Z,3.92
2022-11-29T03:31:42.420Z,3.45
2022-11-29T03:34:15.501Z,3.65
2022-11-29T03:36:46.095Z,3.70
2022-11-29T03:39:19.521Z,3.88
2022-11-29T03:41:57.355Z,4.10
2022-11-29T03:44:45.149Z,3.70
2022-11-29T03:47:19.984Z,4.32
2022-11-29T03:49:56.462Z,3.67
2022-11-29T03:52:36.269Z,3.92
2022-11-29T03:55:09.290Z,3.40
2022-11-29T03:58:15.909Z,3.75
2022-11-29T04:01:15.807Z,3.80
2022-11-29T04:04:09.458Z,3.70
2022-11-29T04:06:57.987Z,3.38
2022-11-29T04:09:34.269Z,3.40
2022-11-29T04:12:07.391Z,4.00
2022-11-29T04:14:57.733Z,4.00
2022-11-29T04:17:30.773Z,3.90
2022-11-29T04:20:29.880Z,4.25
2022-11-29T04:23:37.837Z,4.18
2022-11-29T04:26:48.850Z,4.53
2022-11-29T04:29:40.349Z,4.10
2022-11-29T04:32:19.827Z,4.80
2022-11-29T04:34:56.206Z,5.10
2022-11-29T04:37:41.147Z,5.65
2022-11-29T04:40:47.301Z,5.28
2022-11-29T04:43:33.113Z,5.53
2022-11-29T04:46:41.587Z,5.32
2022-11-29T04:49:36.360Z,8.52
2022-11-29T04:52:41.725Z,6.75
2022-11-29T04:55:53.830Z,6.90
2022-11-29T04:58:58.860Z,6.32
2022-11-29T05:01:47.250Z,5.95
2022-11-29T05:04:39.637Z,5.68
2022-11-29T05:07:29.582Z,5.80
2022-11-29T05:10:15.398Z,6.57
2022-11-29T05:13:19.957Z,6.72
2022-11-29T05:15:59.825Z,7.00
2022-11-29T05:18:35.853Z,6.57
2022-11-29T05:21:27.934Z,6.15
2022-11-29T05:24:07.100Z,7.60
2022-11-29T05:26:55.391Z,9.75
2022-11-29T05:29:50.322Z,11.05
2022-11-29T05:32:35.796Z,7.93
2022-11-29T05:35:18.333Z,6.75
2022-11-29T05:40:43.466Z,6.70
2022-11-29T05:43:18.969Z,7.25
2022-11-29T05:45:58.301Z,6.13
2022-11-29T05:48:31.801Z,6.90
2022-11-29T05:51:28.801Z,7.50
2022-11-29T05:54:33.999Z,8.38
2022-11-29T05:57:32.009Z,7.72
2022-11-29T06:00:02.244Z,8.02
2022-11-29T06:02:45.043Z,7.93
2022-11-29T06:05:33.842Z,6.88
2022-11-29T06:08:07.276Z,6.88
2022-11-29T06:10:40.162Z,7.20
2022-11-29T06:13:29.708Z,7.05
2022-11-29T06:16:18.650Z,7.07
2022-11-29T06:19:12.089Z,7.35
2022-11-29T06:22:00.262Z,10.65
2022-11-29T06:24:43.354Z,8.15
2022-11-29T06:27:21.977Z,7.80
2022-11-29T06:30:01.113Z,9.88
2022-11-29T06:33:01.501Z,12.10
2022-11-29T06:35:47.218Z,10.00
2022-11-29T06:38:23.661Z,7.43
2022-11-29T06:40:56.048Z,7.68
2022-11-29T06:43:27.688Z,7.82
2022-11-29T06:46:35.271Z,9.10
2022-11-29T06:49:02.669Z,10.93
2022-11-29T06:51:29.812Z,8.80
2022-11-29T06:54:17.238Z,10.13
2022-11-29T06:56:55.805Z,9.38
2022-11-29T06:59:40.883Z,10.55
2022-11-29T07:02:26.226Z,9.30
2022-11-29T07:04:53.478Z,9.40
2022-11-29T07:07:22.884Z,9.48
2022-11-29T07:09:53.409Z,9.07
2022-11-29T07:12:20.954Z,9.38
2022-11-29T07:14:48.445Z,8.93
2022-11-29T07:17:32.598Z,9.40
2022-11-29T07:20:24.072Z,9.23
2022-11-29T07:23:13.363Z,9.68
2022-11-29T07:26:05.035Z,11.85
2022-11-29T07:28:38.114Z,9.07
2022-11-29T07:31:08.779Z,13.35
2022-11-29T07:34:02.756Z,12.18
2022-11-29T07:36:32.730Z,12.75
2022-11-29T07:39:29.115Z,13.05
2022-11-29T07:42:20.770Z,11.02
2022-11-29T07:44:59.984Z,12.75
2022-11-29T07:47:30.085Z,12.60
2022-11-29T07:50:01.436Z,11.45
2022-11-29T07:52:28.955Z,9.63
2022-11-29T07:54:56.482Z,14.55
2022-11-29T07:57:23.588Z,10.18
2022-11-29T07:59:50.917Z,9.43
2022-11-29T08:02:27.976Z,10.18
2022-11-29T08:04:55.257Z,9.18
2022-11-29T08:07:24.035Z,9.38
2022-11-29T08:09:51.277Z,8.15
2022-11-29T08:12:18.896Z,9.52
2022-11-29T08:14:46.474Z,9.43
2022-11-29T08:17:13.753Z,9.20
2022-11-29T08:19:43.109Z,10.00
2022-11-29T08:22:10.328Z,9.05
2022-11-29T08:24:37.563Z,11.50
2022-11-29T08:27:04.939Z,9.77
2022-11-29T08:29:32.312Z,10.18
2022-11-29T08:31:59.716Z,9.68
2022-11-29T08:34:27.301Z,9.73
2022-11-29T08:36:57.612Z,9.60
2022-11-29T08:39:24.961Z,9.27
2022-11-29T08:41:52.207Z,9.13
2022-11-29T08:44:19.634Z,15.52
2022-11-29T08:47:05.205Z,32.45
2022-11-29T08:49:32.490Z,10.93
2022-11-29T08:52:19.843Z,12.25
2022-11-29T08:54:47.524Z,8.80
2022-11-29T08:57:38.976Z,8.80
2022-11-29T09:00:02.844Z,8.55
2022-11-29T09:02:30.175Z,8.23
2022-11-29T09:04:57.644Z,10.95
2022-11-29T09:07:25.049Z,8.40
2022-11-29T09:09:52.341Z,8.13
2022-11-29T09:12:19.471Z,7.50
2022-11-29T09:14:46.872Z,12.30
2022-11-29T09:17:14.297Z,9.63
2022-11-29T09:19:41.392Z,6.55
2022-11-29T09:22:08.626Z,7.10
2022-11-29T09:24:35.959Z,6.45
2022-11-29T09:27:03.235Z,8.15
2022-11-29T09:29:30.637Z,6.72
2022-11-29T09:31:57.851Z,6.88
2022-11-29T09:34:25.079Z,6.93
2022-11-29T09:36:52.455Z,6.95
2022-11-29T09:39:19.661Z,6.47
2022-11-29T09:42:21.071Z,6.43
2022-11-29T09:45:11.185Z,8.82
2022-11-29T09:48:00.088Z,5.97
2022-11-29T09:50:43.058Z,5.63
2022-11-29T09:53:28.554Z,5.38
2022-11-29T09:56:12.367Z,5.72
2022-11-29T09:58:49.853Z,5.28
2022-11-29T10:01:26.540Z,4.22
2022-11-29T10:03:57.949Z,4.40
2022-11-29T10:06:40.682Z,4.65
2022-11-29T10:09:17.189Z,4.53
2022-11-29T10:11:54.870Z,5.05
2022-11-29T10:14:48.703Z,4.15
2022-11-29T10:17:40.785Z,10.13
2022-11-29T10:20:19.096Z,6.60
2022-11-29T10:22:53.389Z,6.20
2022-11-29T10:25:30.889Z,4.70
2022-11-29T10:27:58.732Z,4.30
2022-11-29T10:30:25.898Z,4.22
2022-11-29T10:33:00.291Z,4.25
2022-11-29T10:35:29.610Z,5.07
2022-11-29T10:38:30.261Z,4.35
2022-11-29T10:40:53.108Z,4.85
2022-11-29T10:43:20.798Z,4.25
2022-11-29T10:45:56.267Z,4.28
2022-11-29T10:48:27.721Z,5.05
2022-11-29T10:50:55.040Z,4.88
2022-11-29T10:53:36.771Z,5.30
2022-11-29T10:56:38.306Z,4.90
2022-11-29T10:59:09.330Z,4.10
2022-11-29T11:01:38.663Z,4.38
2022-11-29T11:04:10.084Z,4.13
2022-11-29T11:06:53.390Z,3.97
2022-11-29T11:09:32.763Z,3.50
2022-11-29T11:12:08.235Z,4.45
2022-11-29T11:14:38.081Z,4.78
2022-11-29T11:17:37.942Z,4.47
2022-11-29T11:20:27.457Z,4.63
2022-11-29T11:23:04.625Z,3.63
2022-11-29T11:25:39.813Z,3.75
2022-11-29T11:28:20.565Z,3.80
2022-11-29T11:30:55.105Z,2.90
2022-11-29T11:33:28.208Z,3.75
2022-11-29T11:36:27.241Z,3.67
2022-11-29T11:38:54.760Z,2.95
2022-11-29T11:41:47.061Z,3.75
2022-11-29T11:44:47.527Z,3.42
2022-11-29T11:47:22.802Z,3.20
2022-11-29T11:50:00.647Z,3.22
2022-11-29T11:52:40.516Z,3.40
2022-11-29T11:55:30.688Z,3.45
2022-11-29T11:58:16.367Z,8.85
2022-11-29T12:01:13.681Z,2.90
2022-11-29T12:03:58.259Z,2.70
2022-11-29T12:06:42.894Z,2.78
2022-11-29T12:09:18.867Z,3.35
2022-11-29T12:12:06.107Z,2.80
2022-11-29T12:14:48.423Z,3.15
2022-11-29T12:17:35.179Z,2.90
2022-11-29T12:20:11.190Z,2.97
2022-11-29T12:22:57.729Z,5.13
2022-11-29T12:25:30.602Z,4.18
2022-11-29T12:27:57.961Z,3.38
2022-11-29T12:30:25.262Z,3.72
2022-11-29T12:33:15.513Z,3.90
2022-11-29T12:36:12.458Z,3.47
2022-11-29T12:39:07.657Z,2.97
2022-11-29T12:42:22.919Z,3.08
2022-11-29T12:45:16.598Z,3.95
2022-11-29T12:48:03.588Z,8.23
2022-11-29T12:50:50.930Z,3.95
2022-11-29T12:53:29.801Z,5.63
2022-11-29T12:56:19.287Z,3.70
2022-11-29T12:59:25.438Z,3.58
2022-11-29T13:02:33.784Z,3.20
2022-11-29T13:05:22.637Z,4.10
2022-11-29T13:08:10.142Z,2.60
2022-11-29T13:10:52.562Z,3.38
2022-11-29T13:16:30.835Z,3.20
2022-11-29T13:19:33.105Z,3.08
2022-11-29T13:22:11.135Z,3.67
2022-11-29T13:24:46.698Z,2.85
2022-11-29T13:27:28.670Z,3.53
2022-11-29T13:29:58.628Z,4.57
2022-11-29T13:32:43.066Z,2.97
2022-11-29T13:35:38.065Z,4.43
2022-11-29T13:38:05.450Z,3.40
2022-11-29T13:40:38.341Z,3.67
2022-11-29T13:43:31.087Z,4.68
2022-11-29T13:46:21.816Z,3.78
2022-11-29T13:48:54.411Z,3.63
2022-11-29T13:51:44.554Z,3.67
2022-11-29T13:54:30.931Z,4.78
2022-11-29T13:57:09.633Z,4.03
2022-11-29T13:59:44.267Z,7.32
2022-11-29T14:02:30.889Z,19.45
2022-11-29T14:04:58.566Z,9.35
2022-11-29T14:07:26.092Z,8.05
2022-11-29T14:09:57.340Z,3.72
2022-11-29T14:12:55.108Z,4.22
2022-11-29T14:15:32.213Z,3.90
2022-11-29T14:18:08.398Z,3.83
2022-11-29T14:20:41.388Z,5.57
2022-11-29T14:23:08.540Z,4.97
2022-11-29T14:25:55.246Z,3.80
2022-11-29T14:28:22.511Z,4.07
2022-11-29T14:31:03.682Z,4.25
2022-11-29T14:34:13.598Z,3.30
2022-11-29T14:37:06.803Z,3.60
2022-11-29T14:39:46.878Z,4.07
2022-11-29T14:42:22.218Z,4.38
2022-11-29T14:44:56.150Z,4.40
2022-11-29T14:47:30.046Z,3.70
2022-11-29T14:49:59.763Z,3.90
2022-11-29T14:52:38.730Z,4.10
2022-11-29T14:55:06.246Z,4.13
2022-11-29T14:57:54.926Z,4.65
2022-11-29T15:00:29.474Z,5.05
2022-11-29T15:03:14.425Z,9.05
2022-11-29T15:05:45.155Z,5.57
2022-11-29T15:08:16.488Z,6.72
2022-11-29T15:10:53.455Z,5.00
2022-11-29T15:13:27.190Z,5.78
2022-11-29T15:16:13.647Z,6.38
2022-11-29T15:19:04.114Z,6.07
2022-11-29T15:21:34.016Z,4.47
2022-11-29T15:24:13.435Z,13.60
2022-11-29T15:27:00.945Z,4.97
2022-11-29T15:29:29.747Z,4.63
2022-11-29T15:32:03.900Z,4.40
2022-11-29T15:34:37.037Z,4.43
2022-11-29T15:37:04.778Z,4.00
2022-11-29T15:39:34.801Z,4.00
2022-11-29T15:42:12.173Z,4.20
2022-11-29T15:44:46.290Z,4.00
2022-11-29T15:47:25.150Z,5.28
2022-11-29T15:49:54.038Z,4.30
2022-11-29T15:52:34.694Z,6.90
2022-11-29T15:55:05.767Z,5.85
2022-11-29T15:57:38.418Z,15.70
2022-11-29T16:00:08.381Z,10.07
2022-11-29T16:02:39.682Z,6.20
2022-11-29T16:05:15.998Z,14.65
2022-11-29T16:07:45.259Z,7.00
2022-11-29T16:10:18.334Z,6.07
2022-11-29T16:13:05.944Z,5.68
2022-11-29T16:15:36.577Z,5.43
2022-11-29T16:18:13.832Z,5.60
2022-11-29T16:20:43.595Z,5.90
2022-11-29T16:23:13.507Z,5.43
2022-11-29T16:26:13.625Z,5.78
2022-11-29T16:28:47.134Z,6.55
2022-11-29T16:31:36.396Z,5.90
2022-11-29T16:34:29.991Z,5.20
2022-11-29T16:37:04.036Z,6.20
2022-11-29T16:39:31.708Z,8.60
2022-11-29T16:42:23.423Z,11.93
2022-11-29T16:45:01.947Z,8.68
2022-11-29T16:47:47.489Z,6.82
2022-11-29T16:50:19.974Z,5.78
2022-11-29T16:52:50.872Z,6.35
2022-11-29T16:55:22.471Z,8.07
2022-11-29T16:57:50.020Z,6.80
2022-11-29T17:00:32.517Z,7.53
2022-11-29T17:03:00.114Z,8.23
2022-11-29T17:05:27.871Z,14.73
2022-11-29T17:07:55.148Z,10.20
2022-11-29T17:10:25.225Z,9.30
2022-11-29T17:12:52.867Z,14.65
2022-11-29T17:15:20.072Z,21.83
2022-11-29T17:17:47.201Z,21.25
2022-11-29T17:20:14.514Z,52.72
2022-11-29T17:22:42.058Z,39.25
2022-11-29T17:25:10.081Z,40.15
2022-11-29T17:27:37.463Z,36.65
2022-11-29T17:30:06.196Z,7.40
2022-11-29T17:32:36.120Z,12.23
2022-11-29T17:35:03.747Z,10.43
2022-11-29T17:37:31.397Z,12.60
2022-11-29T17:39:58.671Z,8.68
2022-11-29T17:42:25.863Z,15.05
2022-11-29T17:44:53.097Z,6.35
2022-11-29T17:47:20.210Z,8.55
2022-11-29T17:49:47.796Z,6.88
2022-11-29T17:52:15.463Z,7.57
2022-11-29T17:54:42.579Z,7.60
2022-11-29T17:57:10.421Z,9.38
2022-11-29T17:59:37.585Z,6.45
2022-11-29T18:02:04.909Z,6.30
2022-11-29T18:04:32.109Z,7.97
2022-11-29T18:06:59.422Z,5.78
2022-11-29T18:09:26.689Z,6.30
2022-11-29T18:11:53.806Z,10.05
2022-11-29T18:14:23.956Z,10.13
2022-11-29T18:16:52.201Z,8.60
2022-11-29T18:19:22.251Z,7.22
2022-11-29T18:21:50.366Z,66.45
2022-11-29T18:24:18.202Z,30.13
2022-11-29T18:26:46.065Z,17.00
2022-11-29T18:29:13.369Z,11.07
2022-11-29T18:31:43.033Z,50.50
2022-11-29T18:34:13.313Z,45.95
2022-11-29T18:36:46.058Z,19.10
2022-11-29T18:39:16.374Z,9.40
2022-11-29T18:41:45.546Z,10.95
2022-11-29T18:44:14.696Z,6.40
2022-11-29T18:46:43.971Z,6.07
2022-11-29T18:49:18.254Z,6.03
2022-11-29T18:51:46.601Z,5.32
2022-11-29T18:54:16.089Z,6.05
2022-11-29T18:56:44.276Z,7.03
2022-11-29T18:59:14.934Z,7.43
2022-11-29T19:01:45.362Z,6.90
2022-11-29T19:04:15.352Z,6.93
2022-11-29T19:06:43.265Z,6.25
2022-11-29T19:09:21.739Z,6.10
2022-11-29T19:11:49.947Z,6.35
2022-11-29T19:14:17.173Z,6.60
2022-11-29T19:16:46.564Z,8.15
2022-11-29T19:19:13.973Z,7.13
2022-11-29T19:21:41.631Z,8.48
2022-11-29T19:24:14.830Z,8.30
2022-11-29T19:26:44.934Z,8.68
2022-11-29T19:29:13.437Z,8.05
2022-11-29T19:31:40.508Z,6.90
2022-11-29T19:34:08.154Z,6.53
2022-11-29T19:36:43.961Z,6.95
2022-11-29T19:39:14.286Z,6.22
2022-11-29T19:41:46.150Z,6.50
2022-11-29T19:44:13.348Z,6.60
2022-11-29T19:46:43.303Z,6.30
2022-11-29T19:49:11.173Z,8.68
2022-11-29T19:51:38.639Z,9.05
2022-11-29T19:54:07.921Z,18.92
2022-11-29T19:56:35.434Z,60.30
2022-11-29T19:59:02.783Z,13.45
2022-11-29T20:01:39.311Z,19.60
2022-11-29T20:04:08.938Z,12.07
2022-11-29T20:06:36.298Z,28.17
2022-11-29T20:09:04.004Z,25.88
2022-11-29T20:11:31.139Z,22.52
2022-11-29T20:14:02.981Z,95.55
2022-11-29T20:16:31.221Z,32.83
2022-11-29T20:18:59.162Z,46.88
2022-11-29T20:21:29.384Z,102.55
2022-11-29T20:24:01.892Z,105.40
2022-11-29T20:28:58.694Z,32.85
2022-11-29T20:31:26.147Z,45.05
2022-11-29T20:33:54.667Z,57.10
2022-11-29T20:36:36.545Z,47.13
2022-11-29T20:39:29.127Z,35.70
2022-11-29T20:42:28.672Z,50.08
2022-11-29T20:44:58.437Z,48.63
2022-11-29T20:47:28.192Z,44.10
2022-11-29T20:49:55.565Z,30.40
2022-11-29T20:52:41.192Z,41.38
2022-11-29T20:55:08.904Z,31.70
2022-11-29T20:57:38.430Z,26.25
2022-11-29T21:00:11.417Z,22.35
2022-11-29T21:02:39.436Z,32.95
2022-11-29T21:05:07.116Z,24.70
2022-11-29T21:07:34.819Z,17.77
2022-11-29T21:10:02.216Z,41.22
2022-11-29T21:12:30.899Z,56.10
2022-11-29T21:14:58.714Z,22.08
2022-11-29T21:17:31.832Z,38.45
2022-11-29T21:20:01.234Z,22.67
2022-11-29T21:22:42.317Z,36.20
2022-11-29T21:25:27.174Z,24.40
2022-11-29T21:27:55.750Z,20.48
2022-11-29T21:30:25.053Z,13.38
2022-11-29T21:32:53.023Z,12.18
2022-11-29T21:35:20.067Z,12.98
2022-11-29T21:37:47.525Z,11.38
2022-11-29T21:40:15.425Z,12.40
2022-11-29T21:42:42.697Z,11.02
2022-11-29T21:45:15.293Z,10.60
2022-11-29T21:47:44.220Z,10.63
2022-11-29T21:50:13.358Z,10.70
2022-11-29T21:52:40.843Z,10.88
2022-11-29T21:55:08.442Z,9.63
2022-11-29T21:57:35.842Z,9.80
2022-11-29T22:00:04.098Z,9.60
2022-11-29T22:02:31.607Z,9.60
2022-11-29T22:04:58.738Z,9.60
2022-11-29T22:07:25.891Z,11.93
2022-11-29T22:09:53.027Z,11.63
2022-11-29T22:12:33.825Z,13.27
2022-11-29T22:15:01.942Z,10.87
2022-11-29T22:17:29.030Z,11.32
2022-11-29T22:19:56.154Z,11.73
2022-11-29T22:22:27.103Z,37.30
2022-11-29T22:24:55.373Z,25.95
2022-11-29T22:27:22.507Z,26.95
2022-11-29T22:29:49.730Z,17.85
2022-11-29T22:32:16.774Z,15.63
2022-11-29T22:34:44.120Z,12.25
2022-11-29T22:37:12.548Z,11.00
2022-11-29T22:39:39.842Z,13.00
2022-11-29T22:42:07.695Z,10.25
2022-11-29T22:44:34.858Z,10.30
2022-11-29T22:47:02.001Z,9.85
2022-11-29T22:49:30.175Z,10.50
2022-11-29T22:51:57.375Z,10.60
2022-11-29T22:54:24.586Z,11.18
2022-11-29T22:56:52.546Z,11.05
2022-11-29T22:59:19.672Z,10.23
2022-11-29T23:01:47.144Z,10.50
2022-11-29T23:04:14.378Z,13.23
2022-11-29T23:06:44.501Z,20.75
2022-11-29T23:09:17.362Z,12.70
2022-11-29T23:11:46.186Z,11.73
2022-11-29T23:14:13.617Z,13.45
2022-11-29T23:16:40.911Z,14.35
2022-11-29T23:19:08.261Z,19.52
2022-11-29T23:21:37.893Z,33.90
2022-11-29T23:24:05.455Z,25.65
2022-11-29T23:26:40.771Z,27.65
2022-11-29T23:29:11.776Z,20.48
2022-11-29T23:31:39.636Z,20.35
2022-11-29T23:34:06.922Z,13.60
2022-11-29T23:36:34.579Z,14.82
2022-11-29T23:39:04.872Z,10.60
2022-11-29T23:41:32.282Z,10.18
2022-11-29T23:44:02.662Z,11.23
2022-11-29T23:46:29.761Z,12.30
2022-11-29T23:48:56.943Z,13.23
2022-11-29T23:51:24.166Z,14.20
2022-11-29T23:53:53.494Z,12.75
2022-11-29T23:56:21.805Z,11.73
2022-11-29T23:58:49.575Z,11.90
